Latest Coastal Weather Observations for Orbost

IDV60701

Issued at 8:11 am EST Thursday 19 September 2019 (issued every 10 minutes, with the page automatically refreshed every 10 minutes)

About coastal observations | Map of coastal stations | Coastal observations for VIC | Marine services | Other Formats
Station Details ID: 084145 Name: ORBOST Lat: -37.69 Lon: 148.47 Height: 62.65 m
Data from the previous 72 hours. | See also: Recent months at Orbost
Date/Time
EST
Wind Sea
Height
m
Swell Vis
km
Cloud Weather Temp
°C
Press
hPa
Rain since
9am
mm
Dir  Spd
kts
Gust
kts
Height
m
Period
s
Dir
19/08:00am SSE 2 5 - - - - - - - 11.2 1025.6 -
19/07:30am SW 1 2 - - - - - - - 10.1 1025.5 -
19/07:00am WSW 2 3 - - - - - - - 10.0 1025.4 -
19/06:30am SW 1 2 - - - - - - - 9.4 1025.3 -
19/06:00am CALM 0 3 - - - - - - - 8.7 1025.3 -
19/05:30am WNW 2 3 - - - - - - - 8.5 1025.2 -
19/05:00am WNW 2 2 - - - - - - - 8.7 1025.2 -
19/04:30am CALM 0 2 - - - - - - - 8.1 1025.0 -
19/04:00am CALM 0 1 - - - - - - - 9.3 1024.9 -
19/03:30am CALM 0 0 - - - - - - - 8.4 1024.9 -
19/03:00am CALM 0 1 - - - - - - - 8.5 1025.1 0.0
19/02:30am CALM 0 1 - - - - - - - 8.6 1025.2 -
19/02:00am CALM 0 0 - - - - - - - 6.9 1025.5 -
19/01:30am CALM 0 0 - - - - - - - 7.0 1025.9 -
19/01:00am CALM 0 0 - - - - - - - 7.5 1026.1 -
19/12:30am CALM 0 0 - - - - - - - 8.1 1026.3 -
19/12:00am CALM 0 0 - - - - - - - 8.4 1026.4 -
 
Date/Time
EST
Wind Sea
Height
m
Swell Vis
km
Cloud Weather Temp
°C
Press
hPa
Rain since
9am
mm
Dir  Spd
kts
Gust
kts
Height
m
Period
s
Dir
18/11:30pm CALM 0 0 - - - - - - - 9.1 1026.5 -
18/11:00pm NW 2 2 - - - - - - - 9.4 1026.6 -
18/10:30pm WNW 2 3 - - - - - - - 8.7 1026.5 -
18/10:00pm NW 1 2 - - - - - - - 8.6 1026.6 -
18/09:30pm N 2 3 - - - - - - - 10.9 1026.7 -
18/09:00pm N 3 4 - - - - - - - 9.3 1026.5 0.0
18/08:30pm N 2 3 - - - - - - - 9.6 1026.5 -
18/08:00pm N 2 3 - - - - - - - 10.1 1026.4 -
18/07:30pm N 2 3 - - - - - - - 11.0 1026.4 -
18/07:00pm N 1 2 - - - - - - - 11.3 1026.2 -
18/06:30pm WSW 1 2 - - - - - - - 12.8 1026.1 -
18/06:00pm CALM 0 0 - - - - - - - 13.9 1025.9 -
18/05:30pm SE 2 4 - - - - - - - 14.9 1026.0 -
18/05:00pm SE 4 7 - - - - - - - 15.8 1025.9 -
18/04:30pm SE 5 10 - - - - - - - 16.2 1025.8 -
18/04:00pm SE 6 11 - - - - - - - 16.5 1025.8 -
18/03:30pm SE 6 11 - - - - - - - 16.9 1025.7 -
18/03:00pm SE 6 9 - - - - - - - 17.6 1025.9 -
18/02:30pm SSE 6 10 - - - - - - - 18.0 1025.9 -
18/02:00pm SSE 4 7 - - - - - - - 18.2 1026.0 -
18/01:30pm S 5 9 - - - - - - - 17.6 1026.3 -
18/01:00pm SSE 4 7 - - - - - - - 17.6 1026.6 0.0
18/12:30pm SSE 3 6 - - - - - - - 17.4 1026.9 0.0
18/12:00pm SSW 2 6 - - - - - - - 17.2 1027.2 0.0
18/11:30am SSW 2 4 - - - - - - - 16.2 1027.7 0.0
18/11:00am WNW 2 4 - - - - - - - 15.9 1028.0 0.0
18/10:30am WSW 2 4 - - - - - - - 14.7 1028.4 0.0
18/10:00am SW 2 4 - - - - - - - 13.7 1028.7 0.0
18/09:30am NW 3 5 - - - - - - - 13.0 1029.2 0.0
18/09:00am S 2 3 - - - - - - - 10.7 1029.4 0.0
18/08:30am CALM 0 0 - - - - - - - 8.8 1029.5 0.0
18/08:00am CALM 0 0 - - - - - - - 6.9 1029.6 0.0
18/07:30am WNW 1 2 - - - - - - - 5.4 1029.5 0.0
18/07:00am E 2 3 - - - - - - - 6.2 1029.3 0.0
18/06:30am ENE 2 3 - - - - - - - 3.7 1029.2 0.0
18/06:00am NE 1 2 - - - - - - - 3.0 1029.1 0.0
18/05:30am CALM 0 0 - - - - - - - 3.4 1028.8 0.0
18/05:00am W 1 2 - - - - - - - 3.7 1028.6 0.0
18/04:30am CALM 0 1 - - - - - - - 4.6 1028.6 0.0
18/04:00am ENE 2 3 - - - - - - - 5.6 1028.7 0.0
18/03:30am SSW 1 2 - - - - - - - 4.7 1028.9 0.0
18/03:00am NE 1 2 - - - - - - - 5.9 1028.8 0.0
18/02:30am NE 3 6 - - - - - - - 7.8 1028.9 0.0
18/02:00am E 2 4 - - - - - - - 6.5 1029.2 0.0
18/01:30am E 2 3 - - - - - - - 6.9 1029.5 0.0
18/01:00am NE 3 5 - - - - - - - 8.5 1029.6 0.0
18/12:30am NNE 3 6 - - - - - - - 8.8 1029.6 0.0
18/12:00am ESE 1 3 - - - - - - - 7.3 1029.6 0.0
 
Date/Time
EST
Wind Sea
Height
m
Swell Vis
km
Cloud Weather Temp
°C
Press
hPa
Rain since
9am
mm
Dir  Spd
kts
Gust
kts
Height
m
Period
s
Dir
17/11:30pm E 2 6 - - - - - - - 8.2 1029.7 0.0
17/11:00pm ENE 3 5 - - - - - - - 9.0 1029.6 0.0
17/10:30pm ENE 2 4 - - - - - - - 8.8 1029.7 0.0
17/10:00pm CALM 0 1 - - - - - - - 9.5 1029.8 0.0
17/09:30pm E 2 3 - - - - - - - 9.5 1029.7 0.0
17/09:00pm NE 1 2 - - - - - - - 9.5 1029.7 0.0
17/08:30pm E 3 5 - - - - - - - 9.6 1029.4 0.0
17/08:00pm E 2 3 - - - - - - - 9.4 1029.3 0.0
17/07:30pm SE 1 2 - - - - - - - 9.1 1029.0 0.0
17/07:00pm ESE 1 2 - - - - - - - 8.9 1028.4 0.0
17/06:30pm ESE 2 4 - - - - - - - 9.5 1028.2 0.0
17/06:00pm E 3 5 - - - - - - - 10.2 1028.0 0.0
17/05:30pm ESE 2 5 - - - - - - - 11.1 1027.9 0.0
17/05:00pm ESE 4 8 - - - - - - - 11.6 1027.9 0.0
17/04:30pm SE 4 6 - - - - - - - 11.9 1027.8 0.0
17/04:00pm SE 4 8 - - - - - - - 12.3 1027.7 0.0
17/03:30pm ESE 5 9 - - - - - - - 11.8 1027.7 0.0
17/03:00pm SE 6 10 - - - - - - - 12.7 1027.8 0.0
17/02:30pm SSE 5 9 - - - - - - - 11.4 1027.9 0.0
17/02:00pm SSE 6 11 - - - - - - - 11.4 1027.9 0.0
17/01:30pm SSE 5 8 - - - - - - - 12.0 1027.7 0.0
17/01:00pm S 3 6 - - - - - - - 12.7 1027.6 0.0
17/12:30pm S 4 7 - - - - - - - 12.0 1027.7 0.0
17/12:00pm SSW 3 7 - - - - - - - 12.4 1028.0 0.0
17/11:30am SE 2 5 - - - - - - - 11.6 1028.3 0.0
17/11:00am ESE 2 4 - - - - - - - 11.5 1028.5 0.0
17/10:30am SW 2 4 - - - - - - - 10.7 1028.7 0.0
17/10:00am W 4 6 - - - - - - - 10.0 1028.7 0.0
17/09:30am WNW 4 7 - - - - - - - 9.8 1028.6 0.0
17/09:00am WNW 5 8 - - - - - - - 9.3 1028.5 0.4
17/08:30am NNW 4 7 - - - - - - - 8.4 1028.1 0.4
17/08:00am NNW 4 5 - - - - - - - 7.5 1027.8 0.4
17/07:30am CALM 0 2 - - - - - - - 5.2 1027.5 0.4
17/07:00am N 3 4 - - - - - - - 3.6 1027.0 0.4
17/06:30am SE 1 1 - - - - - - - 3.5 1026.9 0.4
17/06:00am N 4 5 - - - - - - - 4.0 1026.3 0.4
17/05:30am NNW 4 5 - - - - - - - 3.1 1026.0 0.4
17/05:00am NW 2 3 - - - - - - - 4.1 1025.8 0.4
17/04:30am N 5 6 - - - - - - - 5.1 1025.8 0.4
17/04:00am N 5 7 - - - - - - - 4.9 1025.7 0.4
17/03:30am NNW 5 6 - - - - - - - 4.1 1025.6 0.4
17/03:00am NW 4 6 - - - - - - - 5.3 1025.5 0.4
17/02:30am WNW 3 4 - - - - - - - 5.7 1025.6 0.4
17/02:00am NW 5 7 - - - - - - - 5.7 1025.5 0.4
17/01:30am NW 4 5 - - - - - - - 5.5 1025.5 0.4
17/01:00am NW 3 4 - - - - - - - 5.5 1025.5 0.4
17/12:30am NW 3 6 - - - - - - - 6.5 1025.7 0.4
17/12:00am NNW 4 5 - - - - - - - 6.2 1025.6 0.4
 
Date/Time
EST
Wind Sea
Height
m
Swell Vis
km
Cloud Weather Temp
°C
Press
hPa
Rain since
9am
mm
Dir  Spd
kts
Gust
kts
Height
m
Period
s
Dir
16/11:30pm NNW 3 6 - - - - - - - 6.4 1025.4 0.4
16/11:00pm NW 3 5 - - - - - - - 5.7 1025.2 0.4
16/10:30pm NNW 3 4 - - - - - - - 6.3 1025.2 0.4
16/10:00pm N 2 3 - - - - - - - 6.7 1025.1 0.4
16/09:30pm N 4 5 - - - - - - - 6.5 1025.0 0.4
16/09:00pm NNW 3 4 - - - - - - - 6.7 1024.7 0.4
16/08:30pm NNW 2 3 - - - - - - - 6.7 1024.6 0.4
16/08:00pm WSW 3 5 - - - - - - - 8.2 1024.3 0.4
16/07:30pm SW 4 6 - - - - - - - 8.4 1024.1 0.4
16/07:00pm WSW 3 5 - - - - - - - 8.7 1023.5 0.4
16/06:30pm SW 4 7 - - - - - - - 8.8 1023.0 0.4
16/06:00pm SW 7 10 - - - - - - - 9.6 1023.0 0.4
16/05:30pm SW 8 12 - - - - - - - 9.7 1022.4 0.4
16/05:00pm SW 6 9 - - - - - - - 10.0 1022.0 0.4
16/04:30pm SW 6 11 - - - - - - - 10.1 1021.6 0.4
16/04:00pm WNW 3 6 - - - - - - - 9.4 1021.3 0.4
16/03:30pm WSW 8 14 - - - - - - - 10.3 1020.7 0.4
16/03:00pm SW 13 18 - - - - - - - 10.8 1020.4 0.4
16/02:30pm SW 11 16 - - - - - - - 11.3 1019.7 0.4
16/02:00pm SW 11 15 - - - - - - - 11.3 1019.6 0.4
16/01:30pm SW 10 15 - - - - - - - 11.6 1019.4 0.4
16/01:00pm WSW 11 19 - - - - - - - 11.4 1019.1 0.4
16/12:30pm W 9 13 - - - - - - - 11.6 1019.3 0.4
16/12:00pm WNW 8 11 - - - - - - - 10.8 1019.5 0.4
16/11:30am WNW 7 11 - - - - - - - 9.9 1019.5 0.4
16/11:00am NW 8 12 - - - - - - - 9.7 1019.3 0.4
16/10:30am NW 6 10 - - - - - - - 9.4 1019.2 0.4
16/10:00am NNW 8 12 - - - - - - - 9.2 1019.1 0.2
16/09:30am NW 7 11 - - - - - - - 8.9 1019.5 0.2
16/09:00am NW 6 9 - - - - - - Rain 8.6 1019.5 15.0
16/08:30am NW 5 8 - - - - - - - 8.5 1018.9 14.2

Other formats

Comma delimited format used in spreadsheet applications
http://www.bom.gov.au/fwo/IDV60701/IDV60701.95918.axf

JavaScript Object Notation format (JSON) in row-major order
http://www.bom.gov.au/fwo/IDV60701/IDV60701.95918.json

Data quality

Most of these data are generated automatically and are frequently updated. Quality checks on data are not normally performed. It is possible for incorrect values to appear. Refer to information at About Latest Weather Observations and please check the disclaimer before using these data.